createdAt,value
2023-04-23T00:01:53.572Z,2.78
2023-04-23T00:04:23.441Z,2.80
2023-04-23T00:06:52.984Z,2.80
2023-04-23T00:09:23.715Z,2.80
2023-04-23T00:11:53.710Z,2.50
2023-04-23T00:14:22.085Z,2.65
2023-04-23T00:16:50.636Z,2.50
2023-04-23T00:19:18.717Z,2.47
2023-04-23T00:21:47.022Z,2.25
2023-04-23T00:24:15.006Z,3.00
2023-04-23T00:26:43.063Z,2.25
2023-04-23T00:29:12.826Z,2.55
2023-04-23T00:31:41.287Z,2.63
2023-04-23T00:34:09.436Z,2.72
2023-04-23T00:36:37.638Z,2.97
2023-04-23T00:39:05.947Z,2.55
2023-04-23T00:41:34.936Z,2.95
2023-04-23T00:44:03.206Z,2.83
2023-04-23T00:46:32.661Z,2.40
2023-04-23T00:49:01.608Z,2.72
2023-04-23T00:51:30.164Z,2.88
2023-04-23T00:53:58.178Z,3.08
2023-04-23T00:56:27.763Z,2.60
2023-04-23T00:58:57.109Z,3.10
2023-04-23T01:01:26.091Z,2.65
2023-04-23T01:03:56.631Z,3.15
2023-04-23T01:06:28.638Z,2.50
2023-04-23T01:08:56.956Z,3.35
2023-04-23T01:11:25.370Z,2.78
2023-04-23T01:13:53.435Z,3.78
2023-04-23T01:16:22.176Z,2.92
2023-04-23T01:18:50.278Z,2.80
2023-04-23T01:21:20.481Z,3.30
2023-04-23T01:23:50.105Z,2.47
2023-04-23T01:26:19.083Z,3.15
2023-04-23T01:28:47.894Z,2.65
2023-04-23T01:31:16.174Z,3.50
2023-04-23T01:33:45.407Z,3.50
2023-04-23T01:36:14.069Z,3.90
2023-04-23T01:38:42.414Z,3.45
2023-04-23T01:41:12.028Z,4.07
2023-04-23T01:43:41.055Z,3.67
2023-04-23T01:46:09.462Z,4.60
2023-04-23T01:48:38.107Z,5.57
2023-04-23T01:51:06.367Z,4.65
2023-04-23T01:53:34.361Z,4.90
2023-04-23T01:56:03.352Z,5.05
2023-04-23T01:58:32.762Z,4.20
2023-04-23T02:01:00.758Z,4.20
2023-04-23T02:03:32.192Z,4.25
2023-04-23T02:06:01.222Z,5.30
2023-04-23T02:08:29.422Z,4.45
2023-04-23T02:10:57.551Z,4.30
2023-04-23T02:13:25.598Z,4.40
2023-04-23T02:15:55.008Z,4.40
2023-04-23T02:18:23.076Z,5.32
2023-04-23T02:20:51.192Z,4.05
2023-04-23T02:23:19.316Z,6.25
2023-04-23T02:25:47.377Z,5.10
2023-04-23T02:28:15.430Z,5.60
2023-04-23T02:30:46.665Z,5.32
2023-04-23T02:33:16.148Z,5.15
2023-04-23T02:35:44.185Z,6.03
2023-04-23T02:38:12.180Z,5.60
2023-04-23T02:40:40.201Z,5.20
2023-04-23T02:43:08.440Z,5.53
2023-04-23T02:45:36.498Z,6.20
2023-04-23T02:48:04.900Z,4.82
2023-04-23T02:50:35.187Z,4.45
2023-04-23T02:53:03.577Z,4.80
2023-04-23T02:55:32.113Z,5.35
2023-04-23T02:58:00.476Z,4.30
2023-04-23T03:00:28.954Z,5.10
2023-04-23T03:02:57.312Z,4.93
2023-04-23T03:05:25.631Z,4.07
2023-04-23T03:07:55.097Z,6.15
2023-04-23T03:10:23.284Z,5.65
2023-04-23T03:12:51.375Z,3.55
2023-04-23T03:15:19.386Z,4.68
2023-04-23T03:17:47.683Z,5.93
2023-04-23T03:20:15.961Z,6.22
2023-04-23T03:22:43.982Z,5.07
2023-04-23T03:25:13.361Z,4.47
2023-04-23T03:27:42.446Z,4.15
2023-04-23T03:30:11.614Z,4.53
2023-04-23T03:32:39.845Z,4.63
2023-04-23T03:35:09.610Z,5.18
2023-04-23T03:37:37.705Z,4.05
2023-04-23T03:40:07.849Z,4.95
2023-04-23T03:42:37.770Z,6.30
2023-04-23T03:45:06.865Z,4.30
2023-04-23T03:47:34.998Z,5.97
2023-04-23T03:50:03.163Z,5.32
2023-04-23T03:52:31.228Z,4.97
2023-04-23T03:54:59.444Z,4.75
2023-04-23T03:57:27.563Z,4.45
2023-04-23T03:59:56.970Z,5.50
2023-04-23T04:02:25.146Z,4.20
2023-04-23T04:04:55.140Z,4.32
2023-04-23T04:07:23.495Z,4.65
2023-04-23T04:09:51.643Z,4.72
2023-04-23T04:12:19.678Z,4.47
2023-04-23T04:14:47.758Z,3.72
2023-04-23T04:17:17.133Z,4.35
2023-04-23T04:19:45.159Z,4.20
2023-04-23T04:22:13.394Z,4.72
2023-04-23T04:24:41.987Z,3.55
2023-04-23T04:27:11.708Z,4.05
2023-04-23T04:29:40.871Z,4.40
2023-04-23T04:32:09.446Z,4.55
2023-04-23T04:34:39.351Z,3.92
2023-04-23T04:37:07.762Z,5.13
2023-04-23T04:39:35.791Z,4.70
2023-04-23T04:42:03.928Z,4.93
2023-04-23T04:44:32.244Z,5.13
2023-04-23T04:47:00.798Z,4.22
2023-04-23T04:49:28.851Z,6.03
2023-04-23T04:51:58.348Z,3.78
2023-04-23T04:54:26.475Z,4.50
2023-04-23T04:56:54.606Z,3.78
2023-04-23T04:59:22.681Z,4.38
2023-04-23T05:01:50.837Z,5.82
2023-04-23T05:04:19.066Z,4.10
2023-04-23T05:06:47.200Z,4.80
2023-04-23T05:09:17.216Z,6.60
2023-04-23T05:11:45.381Z,6.07
2023-04-23T05:14:13.469Z,5.38
2023-04-23T05:16:41.595Z,5.47
2023-04-23T05:19:09.804Z,7.53
2023-04-23T05:21:37.860Z,4.63
2023-04-23T05:24:06.327Z,4.90
2023-04-23T05:26:35.811Z,4.90
2023-04-23T05:29:04.165Z,5.55
2023-04-23T05:31:32.990Z,5.55
2023-04-23T05:34:01.177Z,5.18
2023-04-23T05:36:29.199Z,4.45
2023-04-23T05:38:57.238Z,4.93
2023-04-23T05:41:26.074Z,4.45
2023-04-23T05:43:55.447Z,5.03
2023-04-23T05:46:24.647Z,4.25
2023-04-23T05:48:53.667Z,4.68
2023-04-23T05:51:21.816Z,4.82
2023-04-23T05:53:49.936Z,4.50
2023-04-23T05:56:17.957Z,5.05
2023-04-23T05:58:45.979Z,5.05
2023-04-23T06:01:15.419Z,5.05
2023-04-23T06:03:45.628Z,4.63
2023-04-23T06:06:14.611Z,6.45
2023-04-23T06:08:42.667Z,4.82
2023-04-23T06:11:10.754Z,5.20
2023-04-23T06:13:42.980Z,4.35
2023-04-23T06:16:11.869Z,4.63
2023-04-23T06:18:41.381Z,4.60
2023-04-23T06:21:10.521Z,5.05
2023-04-23T06:23:38.631Z,4.93
2023-04-23T06:26:06.893Z,5.60
2023-04-23T06:28:35.031Z,4.00
2023-04-23T06:31:03.938Z,5.35
2023-04-23T06:33:31.991Z,5.03
2023-04-23T06:36:01.835Z,5.65
2023-04-23T06:38:29.896Z,4.03
2023-04-23T06:40:58.878Z,6.32
2023-04-23T06:43:26.964Z,5.05
2023-04-23T06:45:55.027Z,4.47
2023-04-23T06:48:23.201Z,4.28
2023-04-23T06:50:51.882Z,3.92
2023-04-23T06:53:21.481Z,3.38
2023-04-23T06:55:50.315Z,3.38
2023-04-23T06:58:18.738Z,3.70
2023-04-23T07:00:47.030Z,2.80
2023-04-23T07:03:15.337Z,2.63
2023-04-23T07:05:43.514Z,2.25
2023-04-23T07:08:11.573Z,2.00
2023-04-23T07:10:41.093Z,2.50
2023-04-23T07:13:09.150Z,2.78
2023-04-23T07:15:38.081Z,1.90
2023-04-23T07:18:09.300Z,1.92
2023-04-23T07:20:37.511Z,1.90
2023-04-23T07:23:06.301Z,1.88
2023-04-23T07:25:34.406Z,1.98
2023-04-23T07:28:04.106Z,1.48
2023-04-23T07:30:32.497Z,2.05
2023-04-23T07:33:01.040Z,1.70
2023-04-23T07:35:29.227Z,1.45
2023-04-23T07:37:58.052Z,1.60
2023-04-23T07:40:26.659Z,1.30
2023-04-23T07:42:54.903Z,1.60
2023-04-23T07:45:24.366Z,1.83
2023-04-23T07:47:52.531Z,1.23
2023-04-23T07:50:20.838Z,1.85
2023-04-23T07:52:49.011Z,1.40
2023-04-23T07:55:17.662Z,1.65
2023-04-23T07:57:45.760Z,1.20
2023-04-23T08:00:14.696Z,1.17
2023-04-23T08:02:44.288Z,1.67
2023-04-23T08:05:12.549Z,1.17
2023-04-23T08:07:41.049Z,1.52
2023-04-23T08:10:09.986Z,1.65
2023-04-23T08:12:38.108Z,1.30
2023-04-23T08:15:07.117Z,1.45
2023-04-23T08:17:35.257Z,1.15
2023-04-23T08:20:06.639Z,1.10
2023-04-23T08:22:34.694Z,1.42
2023-04-23T08:25:02.853Z,1.40
2023-04-23T08:27:31.144Z,1.48
2023-04-23T08:29:59.267Z,1.42
2023-04-23T08:32:27.533Z,1.33
2023-04-23T08:34:55.722Z,1.55
2023-04-23T08:37:30.731Z,1.77
2023-04-23T08:39:59.318Z,1.52
2023-04-23T08:42:38.156Z,1.73
2023-04-23T08:45:07.206Z,1.40
2023-04-23T08:47:36.850Z,1.45
2023-04-23T08:50:06.586Z,1.42
2023-04-23T08:52:39.843Z,1.88
2023-04-23T08:55:11.224Z,1.60
2023-04-23T08:57:41.623Z,1.60
2023-04-23T09:00:11.730Z,1.67
2023-04-23T09:02:42.522Z,1.10
2023-04-23T09:05:11.511Z,1.30
2023-04-23T09:07:41.919Z,1.40
2023-04-23T09:10:12.979Z,1.60
2023-04-23T09:12:43.639Z,1.75
2023-04-23T09:15:12.834Z,1.80
2023-04-23T09:17:42.590Z,1.80
2023-04-23T09:20:12.420Z,1.70
2023-04-23T09:22:45.980Z,1.35
2023-04-23T09:25:17.463Z,1.60
2023-04-23T09:27:46.437Z,1.50
2023-04-23T09:30:15.724Z,1.00
2023-04-23T09:32:46.017Z,1.30
2023-04-23T09:35:15.712Z,1.55
2023-04-23T09:37:48.982Z,1.38
2023-04-23T09:40:21.531Z,1.30
2023-04-23T09:42:50.914Z,1.38
2023-04-23T09:45:19.409Z,1.20
2023-04-23T09:47:51.292Z,1.10
2023-04-23T09:50:19.842Z,1.45
2023-04-23T09:52:57.157Z,1.10
2023-04-23T09:55:35.584Z,1.10
2023-04-23T09:58:04.633Z,1.40
2023-04-23T10:00:37.145Z,1.23
2023-04-23T10:03:06.802Z,1.33
2023-04-23T10:05:59.343Z,1.00
2023-04-23T10:08:29.408Z,1.10
2023-04-23T10:11:13.725Z,1.20
2023-04-23T10:13:47.426Z,0.82
2023-04-23T10:16:22.590Z,1.10
2023-04-23T10:18:55.338Z,1.27
2023-04-23T10:21:26.465Z,1.10
2023-04-23T10:23:58.037Z,0.80
2023-04-23T10:26:26.957Z,1.23
2023-04-23T10:28:58.156Z,1.20
2023-04-23T10:31:26.642Z,0.90
2023-04-23T10:33:58.960Z,0.95
2023-04-23T10:36:29.181Z,0.90
2023-04-23T10:39:01.355Z,1.00
2023-04-23T10:41:36.481Z,0.90
2023-04-23T10:44:05.330Z,1.77
2023-04-23T10:46:36.444Z,0.80
2023-04-23T10:49:14.379Z,0.82
2023-04-23T10:52:10.193Z,0.80
2023-04-23T10:54:34.853Z,0.60
2023-04-23T10:57:04.222Z,0.60
2023-04-23T10:59:34.134Z,0.70
2023-04-23T11:02:08.728Z,0.47
2023-04-23T11:04:42.512Z,0.63
2023-04-23T11:07:11.521Z,0.70
2023-04-23T11:09:43.069Z,0.47
2023-04-23T11:12:13.576Z,0.65
2023-04-23T11:14:48.534Z,0.60
2023-04-23T11:17:18.375Z,0.73
2023-04-23T11:20:13.501Z,0.68
2023-04-23T11:22:44.057Z,0.43
2023-04-23T11:25:14.751Z,0.80
2023-04-23T11:27:44.660Z,0.73
2023-04-23T11:30:14.423Z,0.60
2023-04-23T11:32:43.279Z,0.50
2023-04-23T11:35:14.394Z,0.50
2023-04-23T11:37:44.336Z,0.70
2023-04-23T11:40:18.760Z,0.65
2023-04-23T11:42:47.823Z,0.60
2023-04-23T11:45:20.391Z,0.70
2023-04-23T11:47:50.916Z,0.47
2023-04-23T11:50:20.176Z,0.40
2023-04-23T11:52:48.888Z,0.40
2023-04-23T11:55:18.304Z,0.20
2023-04-23T11:57:47.930Z,0.30
2023-04-23T12:00:17.948Z,0.13
2023-04-23T12:02:56.655Z,0.30
2023-04-23T12:05:30.074Z,0.32
2023-04-23T12:08:09.604Z,0.28
2023-04-23T12:10:47.128Z,0.17
2023-04-23T12:13:16.449Z,0.15
2023-04-23T12:15:48.549Z,0.10
2023-04-23T12:18:16.749Z,0.10
2023-04-23T12:20:45.450Z,0.20
2023-04-23T12:23:13.692Z,0.20
2023-04-23T12:25:42.441Z,0.10
2023-04-23T12:28:11.949Z,0.32
2023-04-23T12:30:45.219Z,0.30
2023-04-23T12:33:13.477Z,0.43
2023-04-23T12:35:42.601Z,0.32
2023-04-23T12:38:23.866Z,0.28
2023-04-23T12:40:52.139Z,0.30
2023-04-23T12:43:21.775Z,0.70
2023-04-23T12:45:50.413Z,0.40
2023-04-23T12:48:18.604Z,0.30
2023-04-23T12:50:47.475Z,0.28
2023-04-23T12:53:15.750Z,0.60
2023-04-23T12:55:45.641Z,0.30
2023-04-23T12:58:13.860Z,0.50
2023-04-23T13:00:43.282Z,0.40
2023-04-23T13:03:13.854Z,0.52
2023-04-23T13:05:41.987Z,0.50
2023-04-23T13:08:10.444Z,0.30
2023-04-23T13:10:38.593Z,0.32
2023-04-23T13:13:06.616Z,0.30
2023-04-23T13:15:34.773Z,0.45
2023-04-23T13:18:04.265Z,0.57
2023-04-23T13:20:32.362Z,0.50
2023-04-23T13:23:01.517Z,0.22
2023-04-23T13:25:29.640Z,0.35
2023-04-23T13:27:57.816Z,0.30
2023-04-23T13:30:25.884Z,0.40
2023-04-23T13:32:55.624Z,0.30
2023-04-23T13:35:25.464Z,0.55
2023-04-23T13:37:53.617Z,0.50
2023-04-23T13:40:21.971Z,0.40
2023-04-23T13:42:51.079Z,0.63
2023-04-23T13:45:19.235Z,0.50
2023-04-23T13:47:47.906Z,0.50
2023-04-23T13:50:16.146Z,0.40
2023-04-23T13:52:45.661Z,0.30
2023-04-23T13:55:13.916Z,0.70
2023-04-23T13:57:42.462Z,0.77
2023-04-23T14:00:12.926Z,0.40
2023-04-23T14:02:41.665Z,0.50
2023-04-23T14:05:10.453Z,0.73
2023-04-23T14:07:38.551Z,0.80
2023-04-23T14:10:09.274Z,0.77
2023-04-23T14:12:38.676Z,0.57
2023-04-23T14:15:07.917Z,0.70
2023-04-23T14:17:37.274Z,0.52
2023-04-23T14:20:06.562Z,0.30
2023-04-23T14:22:34.787Z,0.52
2023-04-23T14:25:04.622Z,0.47
2023-04-23T14:27:40.682Z,0.52
2023-04-23T14:30:16.664Z,0.38
2023-04-23T14:32:47.612Z,0.60
2023-04-23T14:35:21.276Z,0.60
2023-04-23T14:37:57.596Z,0.45
2023-04-23T14:40:25.711Z,0.43
2023-04-23T14:42:57.127Z,0.30
2023-04-23T14:45:31.352Z,0.40
2023-04-23T14:47:59.569Z,0.57
2023-04-23T14:50:28.960Z,0.40
2023-04-23T14:52:59.082Z,0.20
2023-04-23T14:55:27.468Z,0.10
2023-04-23T14:57:56.949Z,0.20
2023-04-23T15:00:25.366Z,0.35
2023-04-23T15:02:53.702Z,0.40
2023-04-23T15:05:22.206Z,0.30
2023-04-23T15:07:51.499Z,0.30
2023-04-23T15:10:21.078Z,0.10
2023-04-23T15:13:02.595Z,0.28
2023-04-23T15:15:44.475Z,0.17
2023-04-23T15:18:14.578Z,0.20
2023-04-23T15:20:42.888Z,0.20
2023-04-23T15:23:11.632Z,0.20
2023-04-23T15:25:40.467Z,0.25
2023-04-23T15:28:10.015Z,0.20
2023-04-23T15:30:39.796Z,0.10
2023-04-23T15:33:08.038Z,0.10
2023-04-23T15:35:36.261Z,0.10
2023-04-23T15:38:04.392Z,0.20
2023-04-23T15:40:33.380Z,0.20
2023-04-23T15:43:01.655Z,0.17
2023-04-23T15:45:31.297Z,0.20
2023-04-23T15:47:59.609Z,0.25
2023-04-23T15:50:27.904Z,0.30
2023-04-23T15:52:58.346Z,0.20
2023-04-23T15:55:26.769Z,0.38
2023-04-23T15:57:55.230Z,0.25
2023-04-23T16:00:23.680Z,0.32
2023-04-23T16:02:53.599Z,0.30
2023-04-23T16:05:22.162Z,0.08
2023-04-23T16:07:50.263Z,0.40
2023-04-23T16:10:18.718Z,0.20
2023-04-23T16:12:48.646Z,0.70
2023-04-23T16:15:17.291Z,0.60
2023-04-23T16:17:45.833Z,0.50
2023-04-23T16:20:15.894Z,0.30
2023-04-23T16:22:44.004Z,0.20
2023-04-23T16:25:12.788Z,0.30
2023-04-23T16:27:41.326Z,0.60
2023-04-23T16:30:11.729Z,0.50
2023-04-23T16:32:40.079Z,0.40
2023-04-23T16:35:09.046Z,0.32
2023-04-23T16:37:39.021Z,0.30
2023-04-23T16:40:09.145Z,0.50
2023-04-23T16:42:37.405Z,0.52
2023-04-23T16:45:06.194Z,0.40
2023-04-23T16:47:34.623Z,0.50
2023-04-23T16:50:03.790Z,0.50
2023-04-23T16:52:31.907Z,0.50
2023-04-23T16:55:01.529Z,0.40
2023-04-23T16:57:30.159Z,0.60
2023-04-23T16:59:58.465Z,0.55
2023-04-23T17:02:26.776Z,0.50
2023-04-23T17:04:55.238Z,0.50
2023-04-23T17:07:23.647Z,0.50
2023-04-23T17:09:52.059Z,0.40
2023-04-23T17:12:22.286Z,0.25
2023-04-23T17:14:50.527Z,0.40
2023-04-23T17:17:18.605Z,0.60
2023-04-23T17:19:46.885Z,0.40
2023-04-23T17:22:15.491Z,0.50
2023-04-23T17:24:44.024Z,0.50
2023-04-23T17:27:12.554Z,0.50
2023-04-23T17:29:42.192Z,0.55
2023-04-23T17:32:10.478Z,0.60
2023-04-23T17:34:38.738Z,0.70
2023-04-23T17:37:07.024Z,0.60
2023-04-23T17:39:35.189Z,0.70
2023-04-23T17:42:03.429Z,0.63
2023-04-23T17:44:31.995Z,0.60
2023-04-23T17:47:01.888Z,0.50
2023-04-23T17:49:30.053Z,0.55
2023-04-23T17:51:58.210Z,0.52
2023-04-23T17:54:26.736Z,0.57
2023-04-23T17:56:54.936Z,0.60
2023-04-23T17:59:23.263Z,0.40
2023-04-23T18:01:54.961Z,0.32
2023-04-23T18:04:24.882Z,0.60
2023-04-23T18:06:53.391Z,0.63
2023-04-23T18:09:21.524Z,0.40
2023-04-23T18:11:49.675Z,0.50
2023-04-23T18:14:19.453Z,0.40
2023-04-23T18:16:47.536Z,0.70
2023-04-23T18:19:15.670Z,0.50
2023-04-23T18:21:45.982Z,0.80
2023-04-23T18:24:15.161Z,0.40
2023-04-23T18:26:43.341Z,0.70
2023-04-23T18:29:11.490Z,0.60
2023-04-23T18:31:39.743Z,0.40
2023-04-23T18:34:11.547Z,0.60
2023-04-23T18:36:42.759Z,0.40
2023-04-23T18:39:12.753Z,0.50
2023-04-23T18:41:40.860Z,0.55
2023-04-23T18:44:10.470Z,0.43
2023-04-23T18:46:40.132Z,0.70
2023-04-23T18:49:44.062Z,0.50
2023-04-23T18:52:12.585Z,0.43
2023-04-23T18:54:44.272Z,0.55
2023-04-23T18:57:12.387Z,0.25
2023-04-23T18:59:40.641Z,0.43
2023-04-23T19:02:09.409Z,0.40
2023-04-23T19:04:38.148Z,0.50
2023-04-23T19:07:06.553Z,0.40
2023-04-23T19:09:34.692Z,0.20
2023-04-23T19:12:04.260Z,0.30
2023-04-23T19:14:32.466Z,0.30
2023-04-23T19:17:00.880Z,0.40
2023-04-23T19:19:32.014Z,0.20
2023-04-23T19:22:03.260Z,0.30
2023-04-23T19:24:32.199Z,0.20
2023-04-23T19:27:00.977Z,0.25
2023-04-23T19:29:30.965Z,0.10
2023-04-23T19:31:59.124Z,0.20
2023-04-23T19:34:27.383Z,0.20
2023-04-23T19:36:55.502Z,0.20
2023-04-23T19:39:23.877Z,0.20
2023-04-23T19:41:52.089Z,0.30
2023-04-23T19:44:20.362Z,0.28
2023-04-23T19:46:49.937Z,0.45
2023-04-23T19:49:18.048Z,0.30
2023-04-23T19:51:46.900Z,0.30
2023-04-23T19:54:14.998Z,0.30
2023-04-23T19:56:43.165Z,0.20
2023-04-23T19:59:13.992Z,0.25
2023-04-23T20:01:42.315Z,0.47
2023-04-23T20:04:11.979Z,0.30
2023-04-23T20:09:25.503Z,0.40
2023-04-23T20:11:53.875Z,0.28
2023-04-23T20:14:22.394Z,0.20
2023-04-23T20:16:50.540Z,0.20
2023-04-23T20:19:20.291Z,0.10
2023-04-23T20:21:48.566Z,0.20
2023-04-23T20:24:16.803Z,0.20
2023-04-23T20:26:45.046Z,0.40
2023-04-23T20:29:13.123Z,0.20
2023-04-23T20:31:41.925Z,0.22
2023-04-23T20:34:11.026Z,0.20
2023-04-23T20:36:40.653Z,0.30
2023-04-23T20:39:09.500Z,0.10
2023-04-23T20:41:37.767Z,0.10
2023-04-23T20:44:06.633Z,0.20
2023-04-23T20:46:36.891Z,0.00
2023-04-23T20:49:05.512Z,0.40
2023-04-23T20:51:34.479Z,0.10
2023-04-23T20:54:04.200Z,0.20
2023-04-23T20:56:32.630Z,0.25
2023-04-23T20:59:01.190Z,0.25
2023-04-23T21:01:29.352Z,0.22
2023-04-23T21:04:00.127Z,0.20
2023-04-23T21:06:31.291Z,0.10
2023-04-23T21:08:59.585Z,0.13
2023-04-23T21:11:29.086Z,0.30
2023-04-23T21:13:59.508Z,0.63
2023-04-23T21:16:28.700Z,0.20
2023-04-23T21:18:56.764Z,0.10
2023-04-23T21:21:27.984Z,0.30
2023-04-23T21:23:56.605Z,0.17
2023-04-23T21:26:25.332Z,0.20
2023-04-23T21:28:54.994Z,0.10
2023-04-23T21:31:35.774Z,0.30
2023-04-23T21:34:03.883Z,0.20
2023-04-23T21:36:32.561Z,0.10
2023-04-23T21:39:01.788Z,0.25
2023-04-23T21:41:29.935Z,0.30
2023-04-23T21:43:59.400Z,0.13
2023-04-23T21:46:27.975Z,0.20
2023-04-23T21:48:56.487Z,0.17
2023-04-23T21:51:25.171Z,0.25
2023-04-23T21:53:53.233Z,0.10
2023-04-23T21:56:21.548Z,0.30
2023-04-23T21:58:49.736Z,0.30
2023-04-23T22:01:19.259Z,0.20
2023-04-23T22:03:47.970Z,0.50
2023-04-23T22:06:17.518Z,0.32
2023-04-23T22:08:46.365Z,0.30
2023-04-23T22:11:14.674Z,0.10
2023-04-23T22:13:42.742Z,0.10
2023-04-23T22:16:24.359Z,0.17
2023-04-23T22:18:57.125Z,0.10
2023-04-23T22:21:25.370Z,0.10
2023-04-23T22:23:53.504Z,0.20
2023-04-23T22:26:21.624Z,0.40
2023-04-23T22:28:49.686Z,0.03
2023-04-23T22:31:18.478Z,0.13
2023-04-23T22:33:46.627Z,0.22
2023-04-23T22:36:16.908Z,0.30
2023-04-23T22:38:44.929Z,0.40
2023-04-23T22:41:12.959Z,0.40
2023-04-23T22:43:41.005Z,0.25
2023-04-23T22:46:09.155Z,0.10
2023-04-23T22:48:43.986Z,0.22
2023-04-23T22:51:12.186Z,0.40
2023-04-23T22:53:41.889Z,0.20
2023-04-23T22:56:09.918Z,0.20
2023-04-23T22:58:38.186Z,0.20
2023-04-23T23:01:06.913Z,0.20
2023-04-23T23:03:35.109Z,0.20
2023-04-23T23:06:03.331Z,0.30
2023-04-23T23:08:31.341Z,0.28
2023-04-23T23:11:00.755Z,0.43
2023-04-23T23:13:29.112Z,0.20
2023-04-23T23:16:00.585Z,0.10
2023-04-23T23:18:28.738Z,0.40
2023-04-23T23:20:57.107Z,0.10
2023-04-23T23:23:25.267Z,0.20
2023-04-23T23:25:53.228Z,0.13
2023-04-23T23:28:22.960Z,0.10
2023-04-23T23:30:51.075Z,0.00
2023-04-23T23:33:19.726Z,0.10
2023-04-23T23:35:47.830Z,0.20
2023-04-23T23:38:15.951Z,0.28
2023-04-23T23:40:44.062Z,0.40
2023-04-23T23:43:12.306Z,0.20
2023-04-23T23:45:41.764Z,0.20
2023-04-23T23:48:09.889Z,0.13
2023-04-23T23:50:37.992Z,0.15
2023-04-23T23:53:06.098Z,0.10
2023-04-23T23:55:34.115Z,0.10
2023-04-23T23:58:02.457Z,0.30
